sensor_id;sensor_type;location;lat;lon;timestamp;pressure;altitude;pressure_sealevel;temperature;humidity
39887;BME280;25559;44.738;20.980;2022-07-23T00:00:49;100646.00;;;25.95;nan
39887;BME280;25559;44.738;20.980;2022-07-23T00:03:15;100639.22;;;25.91;nan
39887;BME280;25559;44.738;20.980;2022-07-23T00:05:43;100638.41;;;25.91;nan
39887;BME280;25559;44.738;20.980;2022-07-23T00:08:09;100642.25;;;25.86;nan
39887;BME280;25559;44.738;20.980;2022-07-23T00:10:35;100646.84;;;25.84;nan
39887;BME280;25559;44.738;20.980;2022-07-23T00:13:01;100647.22;;;25.80;nan
39887;BME280;25559;44.738;20.980;2022-07-23T00:15:27;100648.28;;;25.77;nan
39887;BME280;25559;44.738;20.980;2022-07-23T00:17:52;100649.59;;;25.71;nan
39887;BME280;25559;44.738;20.980;2022-07-23T00:20:18;100653.69;;;25.64;nan
39887;BME280;25559;44.738;20.980;2022-07-23T00:22:51;100662.13;;;25.58;nan
39887;BME280;25559;44.738;20.980;2022-07-23T00:25:17;100653.69;;;25.53;nan
39887;BME280;25559;44.738;20.980;2022-07-23T00:27:43;100658.41;;;25.49;nan
39887;BME280;25559;44.738;20.980;2022-07-23T00:30:09;100652.34;;;25.47;nan
39887;BME280;25559;44.738;20.980;2022-07-23T00:32:49;100657.75;;;25.46;nan
39887;BME280;25559;44.738;20.980;2022-07-23T00:35:16;100660.53;;;25.44;nan
39887;BME280;25559;44.738;20.980;2022-07-23T00:37:44;100655.59;;;25.40;nan
39887;BME280;25559;44.738;20.980;2022-07-23T00:40:10;100660.41;;;25.34;nan
39887;BME280;25559;44.738;20.980;2022-07-23T00:42:36;100662.53;;;25.29;nan
39887;BME280;25559;44.738;20.980;2022-07-23T00:45:02;100661.78;;;25.27;nan
39887;BME280;25559;44.738;20.980;2022-07-23T00:47:28;100664.06;;;25.21;nan
39887;BME280;25559;44.738;20.980;2022-07-23T00:49:54;100666.22;;;25.15;nan
39887;BME280;25559;44.738;20.980;2022-07-23T00:52:19;100669.31;;;25.09;nan
39887;BME280;25559;44.738;20.980;2022-07-23T00:54:45;100669.66;;;25.05;nan
39887;BME280;25559;44.738;20.980;2022-07-23T00:57:11;100667.38;;;25.00;nan
39887;BME280;25559;44.738;20.980;2022-07-23T00:59:38;100670.97;;;24.99;nan
39887;BME280;25559;44.738;20.980;2022-07-23T01:02:04;100667.59;;;24.97;nan
39887;BME280;25559;44.738;20.980;2022-07-23T01:04:29;100667.72;;;24.95;nan
39887;BME280;25559;44.738;20.980;2022-07-23T01:06:55;100669.75;;;24.92;nan
39887;BME280;25559;44.738;20.980;2022-07-23T01:09:21;100664.44;;;24.92;nan
39887;BME280;25559;44.738;20.980;2022-07-23T01:11:47;100670.09;;;24.87;nan
39887;BME280;25559;44.738;20.980;2022-07-23T01:14:18;100665.03;;;24.84;nan
39887;BME280;25559;44.738;20.980;2022-07-23T01:16:46;100666.31;;;24.78;nan
39887;BME280;25559;44.738;20.980;2022-07-23T01:19:12;100665.28;;;24.68;nan
39887;BME280;25559;44.738;20.980;2022-07-23T01:21:43;100661.50;;;24.59;nan
39887;BME280;25559;44.738;20.980;2022-07-23T01:24:10;100661.50;;;24.59;nan
39887;BME280;25559;44.738;20.980;2022-07-23T01:26:43;100663.31;;;24.59;nan
39887;BME280;25559;44.738;20.980;2022-07-23T01:29:09;100665.84;;;24.60;nan
39887;BME280;25559;44.738;20.980;2022-07-23T01:31:35;100663.50;;;24.56;nan
39887;BME280;25559;44.738;20.980;2022-07-23T01:34:01;100664.16;;;24.59;nan
39887;BME280;25559;44.738;20.980;2022-07-23T01:36:26;100669.34;;;24.61;nan
39887;BME280;25559;44.738;20.980;2022-07-23T01:38:53;100665.63;;;24.63;nan
39887;BME280;25559;44.738;20.980;2022-07-23T01:41:19;100663.91;;;24.62;nan
39887;BME280;25559;44.738;20.980;2022-07-23T01:43:45;100670.81;;;24.65;nan
39887;BME280;25559;44.738;20.980;2022-07-23T01:46:11;100662.75;;;24.67;nan
39887;BME280;25559;44.738;20.980;2022-07-23T01:48:42;100657.91;;;24.60;nan
39887;BME280;25559;44.738;20.980;2022-07-23T01:51:27;100667.22;;;24.66;nan
39887;BME280;25559;44.738;20.980;2022-07-23T01:54:02;100662.88;;;24.65;nan
39887;BME280;25559;44.738;20.980;2022-07-23T01:56:28;100664.56;;;24.66;nan
39887;BME280;25559;44.738;20.980;2022-07-23T01:58:53;100664.69;;;24.64;nan
39887;BME280;25559;44.738;20.980;2022-07-23T02:01:20;100668.38;;;24.62;nan
39887;BME280;25559;44.738;20.980;2022-07-23T02:03:46;100665.13;;;24.58;nan
39887;BME280;25559;44.738;20.980;2022-07-23T02:06:11;100665.22;;;24.57;nan
39887;BME280;25559;44.738;20.980;2022-07-23T02:08:37;100660.25;;;24.52;nan
39887;BME280;25559;44.738;20.980;2022-07-23T02:11:03;100666.72;;;24.48;nan
39887;BME280;25559;44.738;20.980;2022-07-23T02:13:28;100674.78;;;24.46;nan
39887;BME280;25559;44.738;20.980;2022-07-23T02:15:54;100670.31;;;24.47;nan
39887;BME280;25559;44.738;20.980;2022-07-23T02:18:20;100666.94;;;24.45;nan
39887;BME280;25559;44.738;20.980;2022-07-23T02:20:45;100663.41;;;24.44;nan
39887;BME280;25559;44.738;20.980;2022-07-23T02:23:11;100666.41;;;24.40;nan
39887;BME280;25559;44.738;20.980;2022-07-23T02:25:37;100668.44;;;24.36;nan
39887;BME280;25559;44.738;20.980;2022-07-23T02:28:03;100668.78;;;24.32;nan
39887;BME280;25559;44.738;20.980;2022-07-23T02:30:29;100672.91;;;24.23;nan
39887;BME280;25559;44.738;20.980;2022-07-23T02:32:55;100676.09;;;24.15;nan
39887;BME280;25559;44.738;20.980;2022-07-23T02:35:22;100670.63;;;24.05;nan
39887;BME280;25559;44.738;20.980;2022-07-23T02:37:48;100672.09;;;23.97;nan
39887;BME280;25559;44.738;20.980;2022-07-23T02:40:14;100663.13;;;23.86;nan
39887;BME280;25559;44.738;20.980;2022-07-23T02:42:41;100677.47;;;23.82;nan
39887;BME280;25559;44.738;20.980;2022-07-23T02:45:09;100666.25;;;23.78;nan
39887;BME280;25559;44.738;20.980;2022-07-23T02:47:34;100663.22;;;23.72;nan
39887;BME280;25559;44.738;20.980;2022-07-23T02:50:00;100675.06;;;23.66;nan
39887;BME280;25559;44.738;20.980;2022-07-23T02:52:27;100675.69;;;23.57;nan
39887;BME280;25559;44.738;20.980;2022-07-23T02:54:53;100682.13;;;23.53;nan
39887;BME280;25559;44.738;20.980;2022-07-23T02:57:18;100686.69;;;23.51;nan
39887;BME280;25559;44.738;20.980;2022-07-23T02:59:44;100677.97;;;23.49;nan
39887;BME280;25559;44.738;20.980;2022-07-23T03:02:10;100672.06;;;23.45;nan
39887;BME280;25559;44.738;20.980;2022-07-23T03:04:37;100680.41;;;23.39;nan
39887;BME280;25559;44.738;20.980;2022-07-23T03:07:02;100679.34;;;23.29;nan
39887;BME280;25559;44.738;20.980;2022-07-23T03:09:28;100674.88;;;23.16;nan
39887;BME280;25559;44.738;20.980;2022-07-23T03:11:53;100676.28;;;23.07;nan
39887;BME280;25559;44.738;20.980;2022-07-23T03:14:19;100675.97;;;22.99;nan
39887;BME280;25559;44.738;20.980;2022-07-23T03:16:45;100671.28;;;22.90;nan
39887;BME280;25559;44.738;20.980;2022-07-23T03:19:10;100674.44;;;22.82;nan
39887;BME280;25559;44.738;20.980;2022-07-23T03:21:36;100677.78;;;22.71;nan
39887;BME280;25559;44.738;20.980;2022-07-23T03:24:07;100681.16;;;22.59;nan
39887;BME280;25559;44.738;20.980;2022-07-23T03:26:33;100681.84;;;22.48;nan
39887;BME280;25559;44.738;20.980;2022-07-23T03:29:00;100679.41;;;22.45;nan
39887;BME280;25559;44.738;20.980;2022-07-23T03:31:27;100674.44;;;22.41;nan
39887;BME280;25559;44.738;20.980;2022-07-23T03:33:53;100680.66;;;22.40;nan
39887;BME280;25559;44.738;20.980;2022-07-23T03:36:18;100682.06;;;22.45;nan
39887;BME280;25559;44.738;20.980;2022-07-23T03:38:45;100683.66;;;22.48;nan
39887;BME280;25559;44.738;20.980;2022-07-23T03:41:10;100686.75;;;22.54;nan
39887;BME280;25559;44.738;20.980;2022-07-23T03:43:36;100687.41;;;22.58;nan
39887;BME280;25559;44.738;20.980;2022-07-23T03:46:02;100681.75;;;22.64;nan
39887;BME280;25559;44.738;20.980;2022-07-23T03:48:29;100688.34;;;22.71;nan
39887;BME280;25559;44.738;20.980;2022-07-23T03:50:54;100689.59;;;22.79;nan
39887;BME280;25559;44.738;20.980;2022-07-23T03:53:20;100695.25;;;22.87;nan
39887;BME280;25559;44.738;20.980;2022-07-23T03:55:45;100695.81;;;22.92;nan
39887;BME280;25559;44.738;20.980;2022-07-23T03:58:11;100706.44;;;23.05;nan
39887;BME280;25559;44.738;20.980;2022-07-23T04:00:37;100703.00;;;23.17;nan
39887;BME280;25559;44.738;20.980;2022-07-23T04:03:03;100709.38;;;23.28;nan
39887;BME280;25559;44.738;20.980;2022-07-23T04:05:28;100710.66;;;23.35;nan
39887;BME280;25559;44.738;20.980;2022-07-23T04:08:04;100693.44;;;23.29;nan
39887;BME280;25559;44.738;20.980;2022-07-23T04:10:30;100707.84;;;23.51;nan
39887;BME280;25559;44.738;20.980;2022-07-23T04:12:56;100704.00;;;23.55;nan
39887;BME280;25559;44.738;20.980;2022-07-23T04:15:22;100707.44;;;23.57;nan
39887;BME280;25559;44.738;20.980;2022-07-23T04:17:47;100705.50;;;23.59;nan
39887;BME280;25559;44.738;20.980;2022-07-23T04:20:16;100705.09;;;23.65;nan
39887;BME280;25559;44.738;20.980;2022-07-23T04:22:47;100710.72;;;23.73;nan
39887;BME280;25559;44.738;20.980;2022-07-23T04:25:13;100710.63;;;23.75;nan
39887;BME280;25559;44.738;20.980;2022-07-23T04:27:42;100710.31;;;23.80;nan
39887;BME280;25559;44.738;20.980;2022-07-23T04:30:08;100708.28;;;23.83;nan
39887;BME280;25559;44.738;20.980;2022-07-23T04:32:34;100709.81;;;23.87;nan
39887;BME280;25559;44.738;20.980;2022-07-23T04:35:02;100708.97;;;23.87;nan
39887;BME280;25559;44.738;20.980;2022-07-23T04:37:28;100707.06;;;23.89;nan
39887;BME280;25559;44.738;20.980;2022-07-23T04:39:53;100704.72;;;23.97;nan
39887;BME280;25559;44.738;20.980;2022-07-23T04:42:19;100708.63;;;24.04;nan
39887;BME280;25559;44.738;20.980;2022-07-23T04:44:45;100698.66;;;24.08;nan
39887;BME280;25559;44.738;20.980;2022-07-23T04:47:12;100707.25;;;24.11;nan
39887;BME280;25559;44.738;20.980;2022-07-23T04:49:43;100710.53;;;24.15;nan
39887;BME280;25559;44.738;20.980;2022-07-23T04:52:08;100704.16;;;24.18;nan
39887;BME280;25559;44.738;20.980;2022-07-23T04:54:34;100712.22;;;24.16;nan
39887;BME280;25559;44.738;20.980;2022-07-23T04:57:00;100697.28;;;24.15;nan
39887;BME280;25559;44.738;20.980;2022-07-23T04:59:26;100706.94;;;24.16;nan
39887;BME280;25559;44.738;20.980;2022-07-23T05:01:57;100694.22;;;24.08;nan
39887;BME280;25559;44.738;20.980;2022-07-23T05:04:24;100706.72;;;24.19;nan
39887;BME280;25559;44.738;20.980;2022-07-23T05:06:49;100701.31;;;24.21;nan
39887;BME280;25559;44.738;20.980;2022-07-23T05:09:15;100700.25;;;24.23;nan
39887;BME280;25559;44.738;20.980;2022-07-23T05:11:41;100703.31;;;24.30;nan
39887;BME280;25559;44.738;20.980;2022-07-23T05:14:07;100706.34;;;24.37;nan
39887;BME280;25559;44.738;20.980;2022-07-23T05:16:33;100701.59;;;24.42;nan
39887;BME280;25559;44.738;20.980;2022-07-23T05:19:05;100706.34;;;24.50;nan
39887;BME280;25559;44.738;20.980;2022-07-23T05:21:33;100702.22;;;24.58;nan
39887;BME280;25559;44.738;20.980;2022-07-23T05:23:59;100708.84;;;24.64;nan
39887;BME280;25559;44.738;20.980;2022-07-23T05:26:25;100705.88;;;24.69;nan
39887;BME280;25559;44.738;20.980;2022-07-23T05:28:51;100711.94;;;24.71;nan
39887;BME280;25559;44.738;20.980;2022-07-23T05:31:19;100715.91;;;24.76;nan
39887;BME280;25559;44.738;20.980;2022-07-23T05:33:46;100714.84;;;24.79;nan
39887;BME280;25559;44.738;20.980;2022-07-23T05:36:12;100713.69;;;24.83;nan
39887;BME280;25559;44.738;20.980;2022-07-23T05:38:51;100724.88;;;24.87;nan
39887;BME280;25559;44.738;20.980;2022-07-23T05:41:17;100727.31;;;24.90;nan
39887;BME280;25559;44.738;20.980;2022-07-23T05:43:42;100720.00;;;24.93;nan
39887;BME280;25559;44.738;20.980;2022-07-23T05:46:10;100722.91;;;25.01;nan
39887;BME280;25559;44.738;20.980;2022-07-23T05:48:38;100731.91;;;25.12;nan
39887;BME280;25559;44.738;20.980;2022-07-23T05:51:10;100722.19;;;25.24;nan
39887;BME280;25559;44.738;20.980;2022-07-23T05:53:36;100715.34;;;25.32;nan
39887;BME280;25559;44.738;20.980;2022-07-23T05:56:21;100724.22;;;25.44;nan
39887;BME280;25559;44.738;20.980;2022-07-23T05:58:47;100723.63;;;25.52;nan
39887;BME280;25559;44.738;20.980;2022-07-23T06:01:16;100723.78;;;25.62;nan
39887;BME280;25559;44.738;20.980;2022-07-23T06:04:10;100721.03;;;25.75;nan
39887;BME280;25559;44.738;20.980;2022-07-23T06:06:41;100727.78;;;25.90;nan
39887;BME280;25559;44.738;20.980;2022-07-23T06:09:09;100717.94;;;26.03;nan
39887;BME280;25559;44.738;20.980;2022-07-23T06:11:36;100718.09;;;26.13;nan
39887;BME280;25559;44.738;20.980;2022-07-23T06:14:02;100720.84;;;26.23;nan
39887;BME280;25559;44.738;20.980;2022-07-23T06:16:42;100720.75;;;26.36;nan
39887;BME280;25559;44.738;20.980;2022-07-23T06:19:07;100720.47;;;26.50;nan
39887;BME280;25559;44.738;20.980;2022-07-23T06:21:33;100716.09;;;26.60;nan
39887;BME280;25559;44.738;20.980;2022-07-23T06:23:59;100717.69;;;26.74;nan
39887;BME280;25559;44.738;20.980;2022-07-23T06:26:25;100715.72;;;26.88;nan
39887;BME280;25559;44.738;20.980;2022-07-23T06:28:51;100722.28;;;27.05;nan
39887;BME280;25559;44.738;20.980;2022-07-23T06:31:16;100715.50;;;27.12;nan
39887;BME280;25559;44.738;20.980;2022-07-23T06:33:42;100719.91;;;27.34;nan
39887;BME280;25559;44.738;20.980;2022-07-23T06:36:08;100716.94;;;27.48;nan
39887;BME280;25559;44.738;20.980;2022-07-23T06:38:33;100708.47;;;27.64;nan
39887;BME280;25559;44.738;20.980;2022-07-23T06:40:59;100709.16;;;27.88;nan
39887;BME280;25559;44.738;20.980;2022-07-23T06:43:24;100710.41;;;28.05;nan
39887;BME280;25559;44.738;20.980;2022-07-23T06:45:55;100718.44;;;28.14;nan
39887;BME280;25559;44.738;20.980;2022-07-23T06:48:21;100716.25;;;28.29;nan
39887;BME280;25559;44.738;20.980;2022-07-23T06:50:47;100702.25;;;28.37;nan
39887;BME280;25559;44.738;20.980;2022-07-23T06:53:13;100709.97;;;28.50;nan
39887;BME280;25559;44.738;20.980;2022-07-23T06:55:41;100717.50;;;28.66;nan
39887;BME280;25559;44.738;20.980;2022-07-23T06:58:06;100712.88;;;28.78;nan
39887;BME280;25559;44.738;20.980;2022-07-23T07:00:34;100711.34;;;28.85;nan
39887;BME280;25559;44.738;20.980;2022-07-23T07:03:00;100716.53;;;29.06;nan
39887;BME280;25559;44.738;20.980;2022-07-23T07:05:25;100720.25;;;29.24;nan
39887;BME280;25559;44.738;20.980;2022-07-23T07:07:54;100717.53;;;29.44;nan
39887;BME280;25559;44.738;20.980;2022-07-23T07:10:20;100723.28;;;29.69;nan
39887;BME280;25559;44.738;20.980;2022-07-23T07:12:46;100726.06;;;29.87;nan
39887;BME280;25559;44.738;20.980;2022-07-23T07:15:12;100725.03;;;29.98;nan
39887;BME280;25559;44.738;20.980;2022-07-23T07:17:37;100724.09;;;30.17;nan
39887;BME280;25559;44.738;20.980;2022-07-23T07:20:04;100720.09;;;30.40;nan
39887;BME280;25559;44.738;20.980;2022-07-23T07:22:29;100715.84;;;30.65;nan
39887;BME280;25559;44.738;20.980;2022-07-23T07:24:55;100711.75;;;30.89;nan
39887;BME280;25559;44.738;20.980;2022-07-23T07:27:21;100715.59;;;31.23;nan
39887;BME280;25559;44.738;20.980;2022-07-23T07:29:46;100712.94;;;31.49;nan
39887;BME280;25559;44.738;20.980;2022-07-23T07:32:12;100711.44;;;31.73;nan
39887;BME280;25559;44.738;20.980;2022-07-23T07:34:37;100707.34;;;31.86;nan
39887;BME280;25559;44.738;20.980;2022-07-23T07:37:03;100716.09;;;32.23;nan
39887;BME280;25559;44.738;20.980;2022-07-23T07:39:28;100709.63;;;32.50;nan
39887;BME280;25559;44.738;20.980;2022-07-23T07:41:54;100713.09;;;32.77;nan
39887;BME280;25559;44.738;20.980;2022-07-23T07:44:20;100715.81;;;32.93;nan
39887;BME280;25559;44.738;20.980;2022-07-23T07:46:45;100708.56;;;33.19;nan
39887;BME280;25559;44.738;20.980;2022-07-23T07:49:11;100716.81;;;33.50;nan
39887;BME280;25559;44.738;20.980;2022-07-23T07:51:37;100723.00;;;33.75;nan
39887;BME280;25559;44.738;20.980;2022-07-23T07:54:02;100720.09;;;34.02;nan
39887;BME280;25559;44.738;20.980;2022-07-23T07:56:28;100709.47;;;34.48;nan
39887;BME280;25559;44.738;20.980;2022-07-23T07:58:53;100707.34;;;35.13;nan
39887;BME280;25559;44.738;20.980;2022-07-23T08:01:19;100719.69;;;35.83;nan
39887;BME280;25559;44.738;20.980;2022-07-23T08:03:46;100711.88;;;36.55;nan
39887;BME280;25559;44.738;20.980;2022-07-23T08:06:11;100713.06;;;37.32;nan
39887;BME280;25559;44.738;20.980;2022-07-23T08:08:37;100713.84;;;38.17;nan
39887;BME280;25559;44.738;20.980;2022-07-23T08:11:02;100702.56;;;39.09;nan
39887;BME280;25559;44.738;20.980;2022-07-23T08:13:28;100700.97;;;39.93;nan
39887;BME280;25559;44.738;20.980;2022-07-23T08:15:54;100702.81;;;40.58;nan
39887;BME280;25559;44.738;20.980;2022-07-23T08:18:19;100698.97;;;41.23;nan
39887;BME280;25559;44.738;20.980;2022-07-23T08:20:45;100700.22;;;41.89;nan
39887;BME280;25559;44.738;20.980;2022-07-23T08:23:10;100699.03;;;42.76;nan
39887;BME280;25559;44.738;20.980;2022-07-23T08:25:41;100696.34;;;43.59;nan
39887;BME280;25559;44.738;20.980;2022-07-23T08:28:13;100695.06;;;44.43;nan
39887;BME280;25559;44.738;20.980;2022-07-23T08:30:40;100691.25;;;45.29;nan
39887;BME280;25559;44.738;20.980;2022-07-23T08:33:09;100705.16;;;46.11;nan
39887;BME280;25559;44.738;20.980;2022-07-23T08:35:48;100713.19;;;47.05;nan
39887;BME280;25559;44.738;20.980;2022-07-23T08:38:17;100708.94;;;47.72;nan
39887;BME280;25559;44.738;20.980;2022-07-23T08:40:45;100708.88;;;48.46;nan
39887;BME280;25559;44.738;20.980;2022-07-23T08:43:13;100710.19;;;49.15;nan
39887;BME280;25559;44.738;20.980;2022-07-23T08:45:43;100708.00;;;49.98;nan
39887;BME280;25559;44.738;20.980;2022-07-23T08:48:17;100712.34;;;50.83;nan
39887;BME280;25559;44.738;20.980;2022-07-23T08:50:51;100709.72;;;51.27;nan
39887;BME280;25559;44.738;20.980;2022-07-23T08:53:18;100703.63;;;51.73;nan
39887;BME280;25559;44.738;20.980;2022-07-23T08:55:46;100707.41;;;52.01;nan
39887;BME280;25559;44.738;20.980;2022-07-23T08:58:12;100702.19;;;52.52;nan
39887;BME280;25559;44.738;20.980;2022-07-23T09:00:38;100703.00;;;52.85;nan
39887;BME280;25559;44.738;20.980;2022-07-23T09:03:03;100696.25;;;53.19;nan
39887;BME280;25559;44.738;20.980;2022-07-23T09:05:29;100703.41;;;53.62;nan
39887;BME280;25559;44.738;20.980;2022-07-23T09:08:05;100697.06;;;53.98;nan
39887;BME280;25559;44.738;20.980;2022-07-23T09:10:46;100703.88;;;54.51;nan
39887;BME280;25559;44.738;20.980;2022-07-23T09:13:32;100710.41;;;55.18;nan
39887;BME280;25559;44.738;20.980;2022-07-23T09:18:52;100702.22;;;56.32;nan
39887;BME280;25559;44.738;20.980;2022-07-23T09:21:34;100703.91;;;56.89;nan
39887;BME280;25559;44.738;20.980;2022-07-23T09:24:01;100707.31;;;57.24;nan
39887;BME280;25559;44.738;20.980;2022-07-23T09:26:42;100708.00;;;57.72;nan
39887;BME280;25559;44.738;20.980;2022-07-23T09:34:39;100704.13;;;57.86;nan
39887;BME280;25559;44.738;20.980;2022-07-23T09:37:13;100702.41;;;57.72;nan
39887;BME280;25559;44.738;20.980;2022-07-23T09:39:40;100703.78;;;57.87;nan
39887;BME280;25559;44.738;20.980;2022-07-23T09:44:46;100705.41;;;57.88;nan
39887;BME280;25559;44.738;20.980;2022-07-23T09:47:12;100702.56;;;57.25;nan
39887;BME280;25559;44.738;20.980;2022-07-23T09:49:37;100691.22;;;56.35;nan
39887;BME280;25559;44.738;20.980;2022-07-23T09:52:03;100692.69;;;55.45;nan
39887;BME280;25559;44.738;20.980;2022-07-23T09:57:07;100673.59;;;53.17;nan
39887;BME280;25559;44.738;20.980;2022-07-23T09:59:37;100664.59;;;51.80;nan
39887;BME280;25559;44.738;20.980;2022-07-23T10:02:05;100675.91;;;50.52;nan
39887;BME280;25559;44.738;20.980;2022-07-23T10:04:38;100667.56;;;49.07;nan
39887;BME280;25559;44.738;20.980;2022-07-23T10:07:13;100663.59;;;47.69;nan
39887;BME280;25559;44.738;20.980;2022-07-23T10:10:03;100664.44;;;46.47;nan
39887;BME280;25559;44.738;20.980;2022-07-23T10:12:47;100655.78;;;45.56;nan
39887;BME280;25559;44.738;20.980;2022-07-23T10:15:14;100658.75;;;44.77;nan
39887;BME280;25559;44.738;20.980;2022-07-23T10:17:40;100648.69;;;44.19;nan
39887;BME280;25559;44.738;20.980;2022-07-23T10:20:06;100636.44;;;43.64;nan
39887;BME280;25559;44.738;20.980;2022-07-23T10:22:38;100641.00;;;43.11;nan
39887;BME280;25559;44.738;20.980;2022-07-23T10:28:07;100634.97;;;42.13;nan
39887;BME280;25559;44.738;20.980;2022-07-23T10:30:40;100633.63;;;41.73;nan
39887;BME280;25559;44.738;20.980;2022-07-23T10:33:19;100629.34;;;41.22;nan
39887;BME280;25559;44.738;20.980;2022-07-23T10:35:55;100625.53;;;40.79;nan
39887;BME280;25559;44.738;20.980;2022-07-23T10:41:02;100623.16;;;40.32;nan
39887;BME280;25559;44.738;20.980;2022-07-23T10:43:29;100621.03;;;40.03;nan
39887;BME280;25559;44.738;20.980;2022-07-23T10:45:57;100600.50;;;39.68;nan
39887;BME280;25559;44.738;20.980;2022-07-23T10:48:41;100619.34;;;39.43;nan
39887;BME280;25559;44.738;20.980;2022-07-23T10:56:14;100594.84;;;38.84;nan
39887;BME280;25559;44.738;20.980;2022-07-23T10:58:49;100594.41;;;38.74;nan
39887;BME280;25559;44.738;20.980;2022-07-23T11:04:00;100594.81;;;38.57;nan
39887;BME280;25559;44.738;20.980;2022-07-23T11:15:01;100579.34;;;38.25;nan
39887;BME280;25559;44.738;20.980;2022-07-23T11:17:27;100568.47;;;38.04;nan
39887;BME280;25559;44.738;20.980;2022-07-23T11:27:46;100553.81;;;37.72;nan
39887;BME280;25559;44.738;20.980;2022-07-23T11:35:39;100557.03;;;37.54;nan
39887;BME280;25559;44.738;20.980;2022-07-23T11:40:37;100553.25;;;37.42;nan
39887;BME280;25559;44.738;20.980;2022-07-23T11:43:07;100545.34;;;37.40;nan
39887;BME280;25559;44.738;20.980;2022-07-23T11:45:41;100535.53;;;37.32;nan
39887;BME280;25559;44.738;20.980;2022-07-23T11:48:20;100537.38;;;37.25;nan
39887;BME280;25559;44.738;20.980;2022-07-23T11:50:46;100540.44;;;37.22;nan
39887;BME280;25559;44.738;20.980;2022-07-23T11:53:12;100538.13;;;37.19;nan
39887;BME280;25559;44.738;20.980;2022-07-23T11:55:38;100536.25;;;37.13;nan
39887;BME280;25559;44.738;20.980;2022-07-23T11:58:03;100527.25;;;37.06;nan
39887;BME280;25559;44.738;20.980;2022-07-23T12:00:31;100524.75;;;37.04;nan
39887;BME280;25559;44.738;20.980;2022-07-23T12:03:00;100526.16;;;37.00;nan
39887;BME280;25559;44.738;20.980;2022-07-23T12:05:32;100520.97;;;36.98;nan
39887;BME280;25559;44.738;20.980;2022-07-23T12:07:59;100528.25;;;36.98;nan
39887;BME280;25559;44.738;20.980;2022-07-23T12:10:28;100525.16;;;37.01;nan
39887;BME280;25559;44.738;20.980;2022-07-23T12:13:03;100512.47;;;37.02;nan
39887;BME280;25559;44.738;20.980;2022-07-23T12:15:36;100515.38;;;37.00;nan
39887;BME280;25559;44.738;20.980;2022-07-23T12:18:09;100509.13;;;36.93;nan
39887;BME280;25559;44.738;20.980;2022-07-23T12:20:42;100506.63;;;36.91;nan
39887;BME280;25559;44.738;20.980;2022-07-23T12:23:10;100502.25;;;36.90;nan
39887;BME280;25559;44.738;20.980;2022-07-23T12:25:39;100499.06;;;36.87;nan
39887;BME280;25559;44.738;20.980;2022-07-23T12:28:09;100497.44;;;36.86;nan
39887;BME280;25559;44.738;20.980;2022-07-23T12:33:08;100493.66;;;36.80;nan
39887;BME280;25559;44.738;20.980;2022-07-23T12:35:39;100489.31;;;36.86;nan
39887;BME280;25559;44.738;20.980;2022-07-23T12:38:10;100490.97;;;36.87;nan
39887;BME280;25559;44.738;20.980;2022-07-23T12:40:53;100479.34;;;36.86;nan
39887;BME280;25559;44.738;20.980;2022-07-23T12:43:33;100476.72;;;36.93;nan
39887;BME280;25559;44.738;20.980;2022-07-23T12:48:31;100469.63;;;36.92;nan
39887;BME280;25559;44.738;20.980;2022-07-23T12:53:42;100468.00;;;36.97;nan
39887;BME280;25559;44.738;20.980;2022-07-23T12:56:10;100467.16;;;36.97;nan
39887;BME280;25559;44.738;20.980;2022-07-23T12:58:45;100459.03;;;36.97;nan
39887;BME280;25559;44.738;20.980;2022-07-23T13:01:38;100457.41;;;36.96;nan
39887;BME280;25559;44.738;20.980;2022-07-23T13:04:20;100459.91;;;36.97;nan
39887;BME280;25559;44.738;20.980;2022-07-23T13:06:52;100465.31;;;36.97;nan
39887;BME280;25559;44.738;20.980;2022-07-23T13:09:23;100463.22;;;36.99;nan
39887;BME280;25559;44.738;20.980;2022-07-23T13:11:50;100446.00;;;37.01;nan
39887;BME280;25559;44.738;20.980;2022-07-23T13:14:18;100445.34;;;36.98;nan
39887;BME280;25559;44.738;20.980;2022-07-23T13:16:44;100449.31;;;37.03;nan
39887;BME280;25559;44.738;20.980;2022-07-23T13:19:10;100448.50;;;37.02;nan
39887;BME280;25559;44.738;20.980;2022-07-23T13:21:37;100440.38;;;37.02;nan
39887;BME280;25559;44.738;20.980;2022-07-23T13:24:02;100439.34;;;37.03;nan
39887;BME280;25559;44.738;20.980;2022-07-23T13:26:28;100430.41;;;37.03;nan
39887;BME280;25559;44.738;20.980;2022-07-23T13:28:54;100434.13;;;37.02;nan
39887;BME280;25559;44.738;20.980;2022-07-23T13:31:20;100435.38;;;36.99;nan
39887;BME280;25559;44.738;20.980;2022-07-23T13:33:46;100435.38;;;36.99;nan
39887;BME280;25559;44.738;20.980;2022-07-23T13:36:12;100429.34;;;36.97;nan
39887;BME280;25559;44.738;20.980;2022-07-23T13:38:37;100422.91;;;36.98;nan
39887;BME280;25559;44.738;20.980;2022-07-23T13:41:04;100414.38;;;36.94;nan
39887;BME280;25559;44.738;20.980;2022-07-23T13:43:31;100423.09;;;36.96;nan
39887;BME280;25559;44.738;20.980;2022-07-23T13:45:57;100419.38;;;36.97;nan
39887;BME280;25559;44.738;20.980;2022-07-23T13:48:23;100407.72;;;36.97;nan
39887;BME280;25559;44.738;20.980;2022-07-23T13:50:49;100414.19;;;36.96;nan
39887;BME280;25559;44.738;20.980;2022-07-23T13:53:18;100409.81;;;36.95;nan
39887;BME280;25559;44.738;20.980;2022-07-23T13:55:45;100411.22;;;36.91;nan
39887;BME280;25559;44.738;20.980;2022-07-23T13:58:11;100408.13;;;36.94;nan
39887;BME280;25559;44.738;20.980;2022-07-23T14:00:40;100412.09;;;36.91;nan
39887;BME280;25559;44.738;20.980;2022-07-23T14:03:06;100410.22;;;36.92;nan